Accueil
METAR-TAF:

METAR-TAF

Aéroports :

Lyon, France

Aéroport de Lyon-Bron

latitude: 45-43N, longitude: 004-57E, altitude: 200 m

Observation

Le bulletin a été fait il y a 12 minutes, à 09:00 UTC
Vent 7 kt de nord, variant entre nord-ouest et nord-est
Température 21°C
Humidité 56%
Pression 1022 hPa
Visibilité 10 km ou plus
Quelques nuages à une hauteur de 3800 ft

METAR: LFLY 190900Z AUTO 35007KT 320V050 9999 FEW038 21/12 Q1022 NOSIG

Heure: 11:12 (09:12 UTC)

Prévision

Le bulletin a été fait il y a 4 heures et 12 minutes, à 05:00 UTC
Prévision valable du 19 à 06 UTC au 20 à 06 UTC
Vent 6 kt de nord/nord-ouest
Visibilité 10 km ou plus
pas de nuages en-dessous de 1500 mètres et pas de cumulonimbus.
Temporairement
du 19 à 12 UTC au 19 à 18 UTC
Vent 12 kt de nord

TAF: LFLY 190500Z 1906/2006 34006KT CAVOK TEMPO 1912/1918 36012KT

Observations et prévisions météorologiques de plus de 4000 aéroports (messages METAR et TAF).

Les stations disponibles sont représentées par des disques jaunes et rouges sur la carte.

Passer la souris dessus pour voir le nom de la station.

Cliquer dessus pour voir les observations et prévisions météorologiques.

Pour changer de carte: cliquez sur les boutons verts avec une croix noire pour zoomer, sur le bouton vert avec un tiret pour effectuer un zoom arrière, ou sur les flèches vertes pour les cartes adjacentes.


METAR-TAF: